Acequia, ID

5:11 AM MDT on May 24, 2015 (GMT -0600)
ITD | | Change Station
CLOSE
Current Station
Personal Weather Station
Location: Heyburn, ID
Elevation: 4161 ft
Nearby Weather Stations

Elev 4161 ft 42.57 °N, 113.73 °W | Updated 41 minutes ago

Fog
Fog
45 °F
Feels Like 42 °F
N
6
Wind Variable Wind from NW
Gusts 7.0 mph

Today
High -- | Low -- °F
--% Chance of Precip.
Yesterday
High -- | Low -- °F
Precip. -- in
6:05 AM 8:59 PM
Waxing Crescent, 38% visible
Pressure 29.97 in
Visibility 7.0 miles
Clouds Scattered Clouds 200 ft
Overcast 6000 ft
Windchill 42 °F
Dew Point 43 °F
Humidity 92%
Rainfall in
Snow Depth Not available.
UV 0 out of 12
Pollen 1.30 out of 12
Air Quality Not available.
Flu Activity Sporadic
SPECI KBYI 241101Z AUTO 35003KT 7SM SCT002 OVC060 08/08 A2997 RMK AO2 T00830078

More Conditions Fewer Conditions

Pressure 29.97 in
Visibility 7.0 miles
Clouds Scattered Clouds 200 ft
Overcast 6000 ft
Windchill 42 °F
Dew Point 43 °F
Humidity 92%
Rainfall in
Snow Depth Not available.
UV 0 out of 12
Pollen 1.30 out of 12
Air Quality Not available.
Flu Activity Sporadic
SPECI KBYI 241101Z AUTO 35003KT 7SM SCT002 OVC060 08/08 A2997 RMK AO2 T00830078

More Conditions Fewer Conditions

10-Day Weather Forecast

Almanac

Astronomy

May. 24, 2015 Rise Set
Actual Time
Civil Twilight
Nautical Twilight
Astronomical Twilight
Moon
Length of Visible Light
Length of Day
Tomorrow will be .
, % of the Moon is Illuminated

Today's Extremes

State Highs State Lows

Community

WunderPhotos

Upload Photos

1,823,709 photos uploaded!

WunderBlogs® & News

Nearby

Air Quality

  Air Quality AQ Index Pollutant
Not available.

Snow Depth

Station Depth Elevation

Earthquake Activity

City Distance Mag. Time & Date
Minimum magnitude displayed is 2.5.

Coastal Water Temperatures

Place Temperature

Stations

Nearby Weather Stations

Station Location Temp. Windchill Dew Point Humidity Wind Precip. Elev Updated Type